Time;durP1;ratioP1;P1;durP2;ratioP2;P2;SDS_P1;SDS_P2;PMS_P1;PMS_P2;Temp;Humidity;BMP_temperature;BMP_pressure;BME280_temperature;BME280_humidity;BME280_pressure;Samples;Min_cycle;Max_cycle;Signal;HPM_P1;HPM_P2
2022/10/03 00:00:25;;;;;;;29.77;19.40;;;12.50;99.90;;;;;;4909914;29;20475;-74
2022/10/03 00:03:19;;;;;;;26.77;17.80;;;12.50;99.90;;;;;;4910316;29;20495;-74
2022/10/03 00:05:57;;;;;;;29.03;17.97;;;12.50;99.90;;;;;;4909758;29;20463;-73
2022/10/03 00:08:40;;;;;;;26.70;16.50;;;12.60;99.90;;;;;;4902609;29;20456;-74
2022/10/03 00:11:21;;;;;;;28.63;19.23;;;12.60;99.90;;;;;;4897527;29;20922;-74
2022/10/03 00:13:58;;;;;;;30.77;20.00;;;12.60;99.90;;;;;;4898730;29;20456;-74
2022/10/03 00:16:38;;;;;;;30.13;18.43;;;12.60;99.90;;;;;;4902145;29;20483;-75
2022/10/03 00:19:14;;;;;;;26.47;16.97;;;12.60;99.90;;;;;;4902290;29;20459;-74
2022/10/03 00:21:53;;;;;;;30.50;19.10;;;12.60;99.90;;;;;;4901281;29;20480;-75
2022/10/03 00:24:31;;;;;;;33.60;18.80;;;12.60;99.90;;;;;;4898940;29;20456;-74
2022/10/03 00:27:05;;;;;;;28.20;19.17;;;12.70;99.90;;;;;;4901941;29;20470;-75
2022/10/03 00:29:46;;;;;;;33.73;20.87;;;12.60;99.90;;;;;;4911347;29;20450;-74
2022/10/03 00:32:26;;;;;;;23.60;17.60;;;12.60;99.90;;;;;;4902195;29;21048;-74
2022/10/03 00:35:06;;;;;;;28.87;19.00;;;12.60;99.90;;;;;;4899794;29;21243;-74
2022/10/03 00:37:37;;;;;;;28.80;18.40;;;12.60;99.90;;;;;;4900907;29;20455;-75
2022/10/03 00:40:26;;;;;;;33.07;20.37;;;12.60;99.90;;;;;;4897991;29;20960;-74
2022/10/03 00:43:29;;;;;;;30.33;19.83;;;12.60;99.90;;;;;;4900453;29;20480;-75
2022/10/03 00:46:31;;;;;;;37.20;20.90;;;12.50;99.90;;;;;;4900572;29;20451;-74
2022/10/03 00:49:35;;;;;;;32.60;21.07;;;12.50;99.90;;;;;;4901391;29;20538;-75
2022/10/03 00:52:20;;;;;;;37.50;20.57;;;12.50;99.90;;;;;;4896644;29;20483;-75
2022/10/03 00:55:00;;;;;;;36.10;21.83;;;12.50;99.90;;;;;;4897457;29;20979;-74
2022/10/03 00:57:47;;;;;;;33.97;20.57;;;12.40;99.90;;;;;;4898504;29;20463;-74
2022/10/03 01:00:18;;;;;;;32.57;20.33;;;12.40;99.90;;;;;;4895010;29;20464;-74
2022/10/03 01:03:11;;;;;;;35.37;19.40;;;12.40;99.90;;;;;;4889648;29;20500;-74
2022/10/03 01:05:49;;;;;;;34.83;21.27;;;12.50;99.90;;;;;;4888968;29;20944;-76
2022/10/03 01:08:39;;;;;;;34.73;20.97;;;12.50;99.90;;;;;;4890513;29;20463;-74
2022/10/03 01:11:15;;;;;;;36.23;22.20;;;12.50;99.90;;;;;;4890191;29;20457;-74
2022/10/03 01:13:54;;;;;;;37.93;22.27;;;12.40;99.90;;;;;;4890521;29;20459;-74
2022/10/03 01:16:31;;;;;;;32.93;21.37;;;12.40;99.90;;;;;;4889958;29;20522;-74
2022/10/03 01:19:08;;;;;;;36.77;20.20;;;12.40;99.90;;;;;;4890633;29;20472;-74
2022/10/03 01:21:42;;;;;;;48.00;23.00;;;12.40;99.90;;;;;;4890611;29;20484;-74
2022/10/03 01:24:46;;;;;;;35.63;20.67;;;12.50;99.90;;;;;;4890459;29;20452;-75
2022/10/03 01:27:18;;;;;;;33.70;20.80;;;12.50;99.90;;;;;;4890693;29;20444;-74
2022/10/03 01:32:47;;;;;;;39.07;21.00;;;12.50;99.90;;;;;;4890609;29;20520;-75
2022/10/03 01:35:25;;;;;;;32.13;21.17;;;12.50;99.90;;;;;;4889838;29;20940;-74
2022/10/03 01:38:01;;;;;;;38.03;21.50;;;12.40;99.90;;;;;;4890748;29;20448;-74
2022/10/03 01:40:35;;;;;;;35.90;20.90;;;12.40;99.90;;;;;;4890094;29;20460;-75
2022/10/03 01:43:12;;;;;;;32.80;21.63;;;12.40;99.90;;;;;;4890938;29;20483;-74
2022/10/03 01:45:52;;;;;;;39.20;21.67;;;12.50;99.90;;;;;;4889898;29;20443;-74
2022/10/03 01:48:26;;;;;;;34.53;21.00;;;12.50;99.90;;;;;;4890336;29;20448;-75
2022/10/03 01:51:01;;;;;;;40.17;21.00;;;12.50;99.90;;;;;;4890197;29;20794;-75
2022/10/03 01:53:38;;;;;;;36.70;21.50;;;12.50;99.90;;;;;;4890302;29;20901;-75
2022/10/03 01:56:12;;;;;;;35.23;21.70;;;12.50;99.90;;;;;;4889985;29;20480;-74
2022/10/03 01:58:48;;;;;;;37.10;21.57;;;12.40;99.90;;;;;;4890062;29;20464;-74
2022/10/03 02:01:24;;;;;;;43.70;23.60;;;12.40;99.90;;;;;;4890145;29;20454;-75
2022/10/03 02:04:03;;;;;;;39.27;22.00;;;12.40;99.90;;;;;;4890057;29;21205;-74
2022/10/03 02:06:42;;;;;;;39.57;23.20;;;12.40;99.90;;;;;;4888793;29;20492;-74
2022/10/03 02:09:17;;;;;;;42.47;23.27;;;12.40;99.90;;;;;;4889599;29;20459;-74
2022/10/03 02:12:11;;;;;;;37.93;22.57;;;12.40;99.90;;;;;;4889957;29;20483;-74
2022/10/03 02:14:48;;;;;;;38.60;20.60;;;12.40;99.90;;;;;;4888405;29;20483;-74
2022/10/03 02:17:29;;;;;;;37.10;20.70;;;12.40;99.90;;;;;;4890234;29;20510;-74
2022/10/03 02:20:01;;;;;;;37.00;20.70;;;12.40;99.90;;;;;;4894135;29;20452;-74
2022/10/03 02:22:31;;;;;;;41.37;21.63;;;12.40;99.90;;;;;;4894072;29;20479;-75
2022/10/03 02:25:11;;;;;;;37.10;20.97;;;12.40;99.90;;;;;;4893411;29;20940;-75
2022/10/03 02:28:02;;;;;;;40.60;23.20;;;12.40;99.90;;;;;;4893487;29;20455;-74
2022/10/03 02:30:37;;;;;;;36.03;20.57;;;12.40;99.90;;;;;;4892530;29;20480;-74
2022/10/03 02:33:35;;;;;;;41.60;21.87;;;12.40;99.90;;;;;;4893602;29;20906;-74
2022/10/03 02:36:47;;;;;;;47.93;22.50;;;12.40;99.90;;;;;;4885222;29;20502;-75
2022/10/03 02:39:49;;;;;;;40.97;21.93;;;12.40;99.90;;;;;;4892507;29;20482;-74
2022/10/03 02:43:06;;;;;;;40.97;22.20;;;12.40;99.90;;;;;;4893567;29;20851;-74
2022/10/03 02:46:17;;;;;;;45.03;22.60;;;12.30;99.90;;;;;;4871560;29;20828;-75
2022/10/03 02:49:21;;;;;;;44.40;24.33;;;12.30;99.90;;;;;;4893644;29;20466;-74
2022/10/03 02:52:25;;;;;;;43.10;22.67;;;12.30;99.90;;;;;;4889488;29;20842;-74
2022/10/03 02:55:23;;;;;;;39.20;21.97;;;12.30;99.90;;;;;;4892909;29;20468;-75
2022/10/03 02:58:46;;;;;;;47.00;24.23;;;12.30;99.90;;;;;;4893137;29;20455;-74
2022/10/03 03:01:45;;;;;;;45.50;23.10;;;12.30;99.90;;;;;;4871780;29;20470;-74
2022/10/03 03:04:40;;;;;;;46.13;24.20;;;12.30;99.90;;;;;;4891975;29;20475;-75
2022/10/03 03:07:37;;;;;;;47.17;24.53;;;12.30;99.90;;;;;;4883549;29;20844;-74
2022/10/03 03:10:36;;;;;;;41.30;23.33;;;12.30;99.90;;;;;;4892959;29;20475;-74
2022/10/03 03:13:32;;;;;;;51.10;25.80;;;12.30;99.90;;;;;;4893048;29;20848;-74
2022/10/03 03:16:42;;;;;;;41.80;22.90;;;12.40;99.90;;;;;;4892195;29;21004;-74
2022/10/03 03:19:24;;;;;;;41.30;22.90;;;12.30;99.90;;;;;;4892249;29;20480;-75
2022/10/03 03:22:00;;;;;;;43.77;24.77;;;12.40;99.90;;;;;;4892902;29;20491;-74
2022/10/03 03:24:54;;;;;;;46.23;23.80;;;12.40;99.90;;;;;;4892359;29;20467;-74
2022/10/03 03:27:40;;;;;;;45.03;23.77;;;12.40;99.90;;;;;;4892816;29;20468;-74
2022/10/03 03:30:12;;;;;;;44.10;24.10;;;12.40;99.90;;;;;;4893000;29;20805;-75
2022/10/03 03:32:56;;;;;;;49.57;25.10;;;12.50;99.90;;;;;;4892766;29;20483;-74
2022/10/03 03:35:35;;;;;;;41.57;23.30;;;12.50;99.90;;;;;;4892310;29;20472;-76
2022/10/03 03:38:19;;;;;;;48.17;23.07;;;12.50;99.90;;;;;;4892767;29;20452;-74
2022/10/03 03:41:00;;;;;;;43.53;24.37;;;12.50;99.90;;;;;;4892416;29;20982;-74
2022/10/03 03:43:44;;;;;;;46.23;24.43;;;12.50;99.90;;;;;;4892215;29;20472;-74
2022/10/03 03:46:22;;;;;;;51.20;24.10;;;12.50;99.90;;;;;;4892086;29;20436;-74
2022/10/03 03:49:19;;;;;;;49.43;24.43;;;12.50;99.90;;;;;;4892240;29;20460;-75
2022/10/03 03:51:57;;;;;;;48.20;24.20;;;12.50;99.90;;;;;;4892093;29;20795;-75
2022/10/03 03:54:55;;;;;;;48.60;24.70;;;12.50;99.90;;;;;;4892240;29;20448;-75
2022/10/03 03:58:00;;;;;;;46.30;23.80;;;12.50;99.90;;;;;;4890149;29;20508;-74
2022/10/03 04:00:41;;;;;;;51.43;25.73;;;12.40;99.90;;;;;;4892122;29;20925;-74
2022/10/03 04:03:27;;;;;;;50.07;25.20;;;12.40;99.90;;;;;;4891992;29;20491;-74
2022/10/03 04:06:09;;;;;;;53.13;26.23;;;12.40;99.90;;;;;;4891638;29;20444;-74
2022/10/03 04:08:58;;;;;;;55.60;25.27;;;12.40;99.90;;;;;;4891942;29;20440;-74
2022/10/03 04:11:33;;;;;;;44.80;23.60;;;12.40;99.90;;;;;;4892087;29;20484;-75
2022/10/03 04:14:29;;;;;;;47.30;23.87;;;12.40;99.90;;;;;;4891543;29;20988;-75
2022/10/03 04:20:23;;;;;;;43.73;23.23;;;12.30;99.90;;;;;;4892225;29;20484;-74
2022/10/03 04:23:07;;;;;;;44.60;26.03;;;12.30;99.90;;;;;;4892368;29;20491;-74
2022/10/03 04:25:54;;;;;;;45.60;22.90;;;12.30;99.90;;;;;;4892694;29;20463;-74
2022/10/03 04:28:38;;;;;;;43.37;23.77;;;12.30;99.90;;;;;;4891612;29;20464;-74
2022/10/03 04:31:18;;;;;;;43.80;22.63;;;12.30;99.90;;;;;;4892321;29;20874;-74
2022/10/03 04:34:02;;;;;;;45.43;23.27;;;12.30;99.90;;;;;;4892348;29;20463;-74
2022/10/03 04:36:53;;;;;;;39.83;22.07;;;12.30;99.90;;;;;;4891846;29;20527;-77
2022/10/03 04:39:30;;;;;;;37.87;20.90;;;12.40;99.90;;;;;;4891834;29;20471;-74
2022/10/03 04:42:02;;;;;;;41.80;24.73;;;12.40;99.90;;;;;;4891227;29;20479;-76
2022/10/03 04:44:46;;;;;;;38.03;20.83;;;12.50;99.90;;;;;;4891593;29;20475;-74
2022/10/03 04:47:20;;;;;;;41.33;21.10;;;12.50;99.90;;;;;;4892026;29;20460;-75
2022/10/03 04:49:55;;;;;;;44.53;22.40;;;12.50;99.90;;;;;;4891947;29;20533;-75
2022/10/03 04:52:38;;;;;;;38.53;21.27;;;12.50;99.90;;;;;;4892025;29;20491;-74
2022/10/03 04:55:16;;;;;;;37.07;20.83;;;12.40;99.90;;;;;;4891066;29;20564;-75
2022/10/03 04:57:52;;;;;;;39.00;21.20;;;12.40;99.90;;;;;;4891417;29;21361;-74
2022/10/03 05:00:30;;;;;;;37.10;20.40;;;12.40;99.90;;;;;;4891908;29;20969;-76
2022/10/03 05:03:05;;;;;;;34.70;20.37;;;12.50;99.90;;;;;;4891620;29;20586;-76
2022/10/03 05:05:50;;;;;;;32.03;20.63;;;12.50;99.90;;;;;;4891250;29;20489;-76
2022/10/03 05:08:30;;;;;;;33.90;19.57;;;12.50;99.90;;;;;;4892009;29;20468;-75
2022/10/03 05:11:14;;;;;;;28.10;17.37;;;12.50;99.90;;;;;;4891741;29;20752;-76
2022/10/03 05:13:57;;;;;;;31.40;19.13;;;12.50;99.90;;;;;;4891777;29;20970;-76
2022/10/03 05:16:36;;;;;;;29.20;18.90;;;12.50;99.90;;;;;;4891713;29;20484;-76
2022/10/03 05:19:26;;;;;;;31.13;18.03;;;12.50;99.90;;;;;;4892175;29;20455;-76
2022/10/03 05:21:58;;;;;;;28.00;18.07;;;12.50;99.90;;;;;;4891598;29;20563;-76
2022/10/03 05:24:34;;;;;;;30.10;19.40;;;12.50;99.90;;;;;;4890970;29;20456;-76
2022/10/03 05:27:11;;;;;;;30.63;18.80;;;12.50;99.90;;;;;;4891415;29;20451;-76
2022/10/03 05:29:44;;;;;;;25.90;17.50;;;12.50;99.90;;;;;;4891147;29;20467;-76
2022/10/03 05:32:23;;;;;;;27.60;17.13;;;12.50;99.90;;;;;;4891075;29;20488;-76
2022/10/03 05:35:18;;;;;;;29.63;17.60;;;12.40;99.90;;;;;;4890892;29;20448;-76
2022/10/03 05:38:10;;;;;;;25.53;17.50;;;12.40;99.90;;;;;;4888753;29;20496;-76
2022/10/03 05:40:40;;;;;;;34.97;17.83;;;12.40;99.90;;;;;;4891306;29;20445;-76
2022/10/03 05:43:34;;;;;;;30.03;17.83;;;12.30;99.90;;;;;;4890935;29;20487;-76
2022/10/03 05:46:09;;;;;;;26.67;16.20;;;12.30;99.90;;;;;;4890887;29;20507;-76
2022/10/03 05:48:47;;;;;;;27.13;17.50;;;12.30;99.90;;;;;;4891051;29;20463;-76
2022/10/03 05:51:46;;;;;;;28.63;15.70;;;12.30;99.90;;;;;;4891234;29;20881;-76
2022/10/03 05:54:51;;;;;;;62.10;19.60;;;12.20;99.90;;;;;;4889768;29;20464;-77
2022/10/03 05:57:34;;;;;;;71.07;19.90;;;12.10;99.90;;;;;;4880649;29;20504;-76
2022/10/03 06:00:19;;;;;;;36.47;18.73;;;12.00;99.90;;;;;;4891409;29;20440;-76
2022/10/03 06:03:23;;;;;;;45.73;21.73;;;12.00;99.90;;;;;;4891098;29;20504;-76
2022/10/03 06:06:19;;;;;;;46.40;20.50;;;11.90;99.90;;;;;;4890508;29;20466;-76
2022/10/03 06:09:29;;;;;;;34.63;19.10;;;11.90;99.90;;;;;;4891013;29;20535;-76
2022/10/03 06:12:03;;;;;;;34.00;18.83;;;11.90;99.90;;;;;;4890383;29;21039;-72
2022/10/03 06:14:38;;;;;;;40.60;18.70;;;11.90;99.90;;;;;;4890054;29;20466;-75
2022/10/03 06:17:42;;;;;;;43.53;19.90;;;11.90;99.90;;;;;;4890412;29;20503;-75
2022/10/03 06:20:29;;;;;;;35.93;18.40;;;11.90;99.90;;;;;;4892414;29;20549;-74
2022/10/03 06:23:46;;;;;;;36.17;17.20;;;11.80;99.90;;;;;;4909293;29;20479;-75
2022/10/03 06:26:31;;;;;;;30.93;17.37;;;11.70;99.90;;;;;;4827009;29;20469;-73
2022/10/03 06:29:19;;;;;;;36.07;19.10;;;11.70;99.90;;;;;;4909750;29;20447;-75
2022/10/03 06:32:12;;;;;;;34.67;20.17;;;11.60;99.90;;;;;;4896947;29;20992;-75
2022/10/03 06:35:09;;;;;;;35.27;21.10;;;11.60;99.90;;;;;;4871153;29;20454;-76
2022/10/03 06:38:16;;;;;;;34.30;20.77;;;11.60;99.90;;;;;;4869307;29;20583;-76
2022/10/03 06:41:19;;;;;;;36.67;20.33;;;11.60;99.90;;;;;;4871699;29;20461;-76
2022/10/03 06:44:03;;;;;;;35.50;19.50;;;11.50;99.90;;;;;;4871643;29;20474;-76
2022/10/03 06:46:52;;;;;;;38.60;20.23;;;11.60;99.90;;;;;;4872135;29;20453;-76
2022/10/03 06:49:47;;;;;;;42.27;19.47;;;11.60;99.90;;;;;;4871555;29;20717;-76
2022/10/03 06:53:00;;;;;;;39.93;20.43;;;11.60;99.90;;;;;;4871899;29;20489;-77
2022/10/03 06:55:54;;;;;;;44.87;22.80;;;11.70;99.90;;;;;;4854942;29;20463;-77
2022/10/03 06:58:47;;;;;;;48.67;22.70;;;11.60;99.90;;;;;;4871722;29;20497;-78
2022/10/03 07:01:51;;;;;;;52.50;23.30;;;11.60;99.90;;;;;;4866731;29;20483;-77
2022/10/03 07:04:56;;;;;;;55.50;23.87;;;11.60;99.90;;;;;;4873602;29;20457;-77
2022/10/03 07:08:02;;;;;;;49.20;22.00;;;11.60;99.90;;;;;;4867427;29;20471;-78
2022/10/03 07:10:44;;;;;;;53.27;25.20;;;11.70;99.90;;;;;;4855351;29;21347;-77
2022/10/03 07:13:47;;;;;;;50.87;22.87;;;11.70;99.90;;;;;;4874592;29;20489;-77
2022/10/03 07:16:52;;;;;;;57.67;24.37;;;11.70;99.90;;;;;;4874502;29;20452;-78
2022/10/03 07:19:36;;;;;;;49.43;22.53;;;11.70;99.90;;;;;;4881156;29;20470;-78
2022/10/03 07:22:38;;;;;;;42.00;22.63;;;11.80;99.90;;;;;;4912112;29;20474;-78
2022/10/03 07:25:34;;;;;;;38.17;19.27;;;11.80;99.90;;;;;;4882750;29;20466;-78
2022/10/03 07:28:19;;;;;;;39.67;19.80;;;11.90;99.90;;;;;;4910849;29;20482;-78
2022/10/03 07:30:57;;;;;;;30.03;17.13;;;11.90;99.90;;;;;;4912093;29;20451;-78
2022/10/03 07:33:51;;;;;;;34.33;17.60;;;12.00;99.90;;;;;;4912310;29;20542;-78
2022/10/03 07:39:57;;;;;;;29.77;15.67;;;12.10;99.90;;;;;;4912060;29;20509;-77
2022/10/03 07:42:52;;;;;;;25.50;12.20;;;12.20;99.90;;;;;;4911909;29;20490;-78
2022/10/03 07:45:38;;;;;;;19.67;11.67;;;12.20;99.90;;;;;;4909482;29;20467;-77
2022/10/03 07:48:56;;;;;;;27.37;12.90;;;12.20;99.90;;;;;;4911964;29;20483;-78
2022/10/03 07:51:31;;;;;;;18.80;11.47;;;12.20;99.90;;;;;;4853121;29;20509;-78
2022/10/03 07:54:30;;;;;;;25.13;11.00;;;12.30;99.90;;;;;;4852547;29;20478;-78
2022/10/03 07:57:24;;;;;;;31.53;16.53;;;12.20;99.90;;;;;;4894240;29;20467;-78
2022/10/03 08:00:23;;;;;;;25.80;15.80;;;12.20;99.90;;;;;;4911553;29;20974;-77
2022/10/03 08:03:43;;;;;;;27.80;16.40;;;12.30;99.90;;;;;;4852712;29;21004;-77
2022/10/03 08:06:17;;;;;;;38.87;17.17;;;12.20;99.90;;;;;;4910870;29;21084;-78
2022/10/03 08:09:28;;;;;;;30.33;16.77;;;12.20;99.90;;;;;;4911336;29;20508;-77
2022/10/03 08:12:31;;;;;;;33.93;18.87;;;12.20;99.90;;;;;;4904761;29;20479;-77
2022/10/03 08:15:09;;;;;;;29.77;17.40;;;12.20;99.90;;;;;;4910568;29;20439;-77
2022/10/03 08:18:02;;;;;;;32.37;16.80;;;12.20;99.90;;;;;;4911366;29;20493;-77
2022/10/03 08:20:53;;;;;;;22.97;15.43;;;12.20;99.90;;;;;;4910968;29;20452;-77
2022/10/03 08:23:57;;;;;;;28.50;14.10;;;12.20;99.90;;;;;;4900923;29;20552;-77
2022/10/03 08:26:45;;;;;;;29.43;15.13;;;12.20;99.90;;;;;;4891895;29;20961;-78
2022/10/03 08:29:41;;;;;;;27.70;14.87;;;12.20;99.90;;;;;;4891971;29;20917;-77
2022/10/03 08:32:46;;;;;;;25.20;14.20;;;12.20;99.90;;;;;;4883368;29;20471;-77
2022/10/03 08:35:45;;;;;;;30.50;14.60;;;12.30;99.90;;;;;;4910006;29;20464;-76
2022/10/03 08:38:48;;;;;;;27.97;14.50;;;12.30;99.90;;;;;;4910945;29;20499;-78
2022/10/03 08:41:49;;;;;;;24.27;13.40;;;12.30;99.90;;;;;;4909622;29;20941;-78
2022/10/03 08:44:46;;;;;;;26.50;12.80;;;12.40;99.90;;;;;;4910137;29;20488;-78
2022/10/03 08:47:50;;;;;;;27.37;12.33;;;12.40;99.90;;;;;;4898574;29;20466;-77
2022/10/03 08:50:36;;;;;;;24.97;11.30;;;12.50;99.90;;;;;;4910930;29;20443;-77
2022/10/03 08:53:40;;;;;;;21.53;10.80;;;12.50;99.90;;;;;;4910545;29;20834;-78
2022/10/03 08:56:13;;;;;;;19.73;12.60;;;12.60;99.90;;;;;;4909964;29;20486;-78
2022/10/03 08:59:10;;;;;;;19.50;12.00;;;12.70;99.90;;;;;;4909265;29;21043;-77
2022/10/03 09:02:28;;;;;;;17.97;10.03;;;12.80;99.90;;;;;;4910179;29;20486;-78
2022/10/03 09:05:22;;;;;;;23.33;8.80;;;12.70;99.90;;;;;;4851228;29;21057;-77
2022/10/03 09:08:21;;;;;;;20.57;8.90;;;12.70;99.90;;;;;;4911369;29;20462;-77
2022/10/03 09:11:41;;;;;;;18.27;9.03;;;12.70;99.90;;;;;;4909863;29;20944;-77
2022/10/03 09:14:44;;;;;;;10.17;7.77;;;12.70;99.90;;;;;;4910069;29;20919;-77
2022/10/03 09:17:56;;;;;;;18.60;8.90;;;12.80;99.90;;;;;;4886598;29;20991;-78
2022/10/03 09:21:13;;;;;;;17.03;7.40;;;12.80;99.90;;;;;;4912507;29;20454;-78
2022/10/03 09:24:17;;;;;;;13.03;7.07;;;12.80;99.90;;;;;;4906502;29;20507;-79
2022/10/03 09:27:32;;;;;;;16.50;7.37;;;12.80;99.90;;;;;;4856280;29;20497;-77
2022/10/03 09:30:13;;;;;;;10.40;6.63;;;12.80;99.90;;;;;;4839361;29;20477;-78
2022/10/03 09:33:18;;;;;;;18.50;7.10;;;12.70;99.90;;;;;;4890919;29;20550;-76
2022/10/03 09:36:03;;;;;;;16.67;6.40;;;12.70;99.90;;;;;;4891286;29;20452;-77
2022/10/03 09:39:02;;;;;;;11.40;7.53;;;12.80;99.90;;;;;;4891412;29;20496;-77
2022/10/03 09:42:02;;;;;;;15.00;6.53;;;12.80;99.90;;;;;;4891341;29;20548;-77
2022/10/03 09:44:39;;;;;;;15.77;7.77;;;12.80;99.90;;;;;;4891243;29;21172;-77
2022/10/03 09:47:38;;;;;;;21.83;9.67;;;12.90;99.90;;;;;;4891545;29;20452;-77
2022/10/03 09:50:54;;;;;;;16.10;9.53;;;12.90;99.90;;;;;;4890949;29;20557;-77
2022/10/03 09:53:47;;;;;;;13.87;7.30;;;12.80;99.90;;;;;;4891263;29;20571;-77
2022/10/03 09:56:38;;;;;;;16.10;7.97;;;12.80;99.90;;;;;;4891005;29;20451;-78
2022/10/03 09:59:20;;;;;;;17.47;7.20;;;13.00;99.90;;;;;;4891348;29;21268;-77
2022/10/03 10:01:53;;;;;;;13.50;6.43;;;13.10;99.90;;;;;;4890870;29;20498;-77
2022/10/03 10:04:45;;;;;;;16.87;6.10;;;13.30;99.90;;;;;;4890200;29;20464;-77
2022/10/03 10:07:43;;;;;;;16.43;6.17;;;13.50;99.90;;;;;;4891051;29;20470;-77
2022/10/03 10:10:46;;;;;;;17.87;6.53;;;13.60;99.90;;;;;;4865028;29;20466;-77
2022/10/03 10:13:23;;;;;;;14.50;6.97;;;13.70;99.90;;;;;;4887999;29;20508;-77
2022/10/03 10:16:17;;;;;;;15.20;8.07;;;13.80;99.90;;;;;;4890285;29;20812;-76
2022/10/03 10:19:14;;;;;;;16.57;8.00;;;13.90;99.90;;;;;;4890696;29;20519;-77
2022/10/03 10:22:10;;;;;;;17.13;7.70;;;13.90;99.90;;;;;;4891246;29;20492;-77
2022/10/03 10:25:08;;;;;;;8.50;5.70;;;13.90;99.90;;;;;;4889717;29;20824;-77
2022/10/03 10:28:12;;;;;;;12.03;5.57;;;14.00;99.90;;;;;;4890541;29;20472;-78
2022/10/03 10:31:22;;;;;;;13.20;6.10;;;14.00;99.90;;;;;;4890515;29;20460;-77
2022/10/03 10:34:37;;;;;;;11.50;6.63;;;14.00;99.90;;;;;;4890383;29;20467;-77
2022/10/03 10:37:41;;;;;;;12.20;6.23;;;14.00;99.90;;;;;;4890119;29;21446;-77
2022/10/03 10:40:39;;;;;;;11.50;6.30;;;14.10;99.90;;;;;;4892722;29;20459;-77
2022/10/03 10:43:38;;;;;;;10.07;5.37;;;14.10;99.90;;;;;;4894063;29;20512;-77
2022/10/03 10:46:40;;;;;;;14.10;5.50;;;14.30;99.90;;;;;;4869241;29;20460;-77
2022/10/03 10:49:52;;;;;;;12.40;6.20;;;14.40;99.90;;;;;;4893961;29;20905;-77
2022/10/03 10:52:46;;;;;;;8.67;5.70;;;14.60;99.90;;;;;;4893727;29;20476;-79
2022/10/03 10:56:03;;;;;;;22.00;6.67;;;14.70;99.90;;;;;;4893033;29;20926;-77
2022/10/03 10:59:21;;;;;;;7.93;4.13;;;14.90;99.90;;;;;;4894029;29;20507;-78
2022/10/03 11:02:29;;;;;;;10.83;4.73;;;15.10;99.90;;;;;;4893314;29;20483;-75
2022/10/03 11:05:33;;;;;;;9.20;4.57;;;15.20;99.90;;;;;;4868769;29;20836;-75
2022/10/03 11:08:41;;;;;;;6.37;4.00;;;15.50;99.90;;;;;;4892133;29;20464;-76
2022/10/03 11:11:56;;;;;;;6.10;4.47;;;15.70;99.90;;;;;;4893368;29;20473;-76
2022/10/03 11:15:07;;;;;;;9.93;4.77;;;15.90;99.90;;;;;;4892879;29;20470;-76
2022/10/03 11:18:14;;;;;;;15.87;6.07;;;16.10;99.90;;;;;;4893260;29;20460;-76
2022/10/03 11:21:12;;;;;;;10.07;5.40;;;16.20;99.90;;;;;;4893045;29;20460;-76
2022/10/03 11:24:05;;;;;;;10.83;5.33;;;16.20;99.90;;;;;;4892390;29;20460;-76
2022/10/03 11:27:01;;;;;;;12.10;5.77;;;16.30;99.90;;;;;;4893010;29;20468;-74
2022/10/03 11:30:32;;;;;;;13.40;4.43;;;16.60;99.90;;;;;;4881095;29;20467;-74
2022/10/03 11:33:47;;;;;;;14.47;5.90;;;16.80;99.90;;;;;;4834610;29;20479;-75
2022/10/03 11:36:37;;;;;;;9.60;6.00;;;16.80;99.90;;;;;;4892245;29;20514;-77
2022/10/03 11:39:06;;;;;;;11.17;5.13;;;16.60;99.90;;;;;;4893172;29;20484;-77
2022/10/03 11:41:48;;;;;;;10.83;5.80;;;16.30;99.90;;;;;;4892773;29;20476;-77
2022/10/03 11:44:24;;;;;;;15.33;6.80;;;16.10;99.90;;;;;;4892283;29;20459;-76
2022/10/03 11:47:24;;;;;;;11.37;6.07;;;15.90;99.90;;;;;;4899592;29;20458;-77
2022/10/03 11:50:17;;;;;;;11.63;6.10;;;15.80;99.90;;;;;;4911348;29;20455;-77
2022/10/03 11:52:59;;;;;;;11.50;5.40;;;15.70;99.90;;;;;;4911507;29;21275;-77
2022/10/03 11:55:32;;;;;;;9.10;5.60;;;15.60;99.90;;;;;;4910973;29;20463;-77
2022/10/03 11:58:14;;;;;;;12.53;5.30;;;15.50;99.90;;;;;;4903333;29;20538;-76
2022/10/03 12:00:44;;;;;;;11.40;5.77;;;15.50;99.90;;;;;;4892393;29;20463;-77
2022/10/03 12:03:19;;;;;;;15.50;5.80;;;15.40;99.90;;;;;;4898779;29;20505;-77
2022/10/03 12:08:53;;;;;;;17.53;5.60;;;15.30;99.90;;;;;;4895680;29;20471;-76
2022/10/03 12:08:57;;;;;;;13.50;5.33;;;15.40;99.90;;;;;;4892520;29;20480;-76
2022/10/03 12:11:27;;;;;;;10.90;5.50;;;15.40;99.90;;;;;;4896728;29;20503;-77
2022/10/03 12:14:13;;;;;;;14.77;5.17;;;15.40;99.90;;;;;;4892429;29;20558;-77
2022/10/03 12:16:56;;;;;;;14.80;5.90;;;15.30;99.90;;;;;;4892295;29;20952;-76
2022/10/03 12:19:29;;;;;;;9.47;5.10;;;15.30;99.90;;;;;;4900988;29;20486;-76
2022/10/03 12:22:06;;;;;;;11.70;4.43;;;15.40;99.90;;;;;;4901155;29;20487;-76
2022/10/03 12:24:36;;;;;;;10.80;4.77;;;15.50;99.90;;;;;;4887272;29;20443;-76
2022/10/03 12:27:14;;;;;;;10.10;4.37;;;15.50;99.90;;;;;;4910991;29;20467;-77
2022/10/03 12:29:46;;;;;;;9.90;4.30;;;15.60;99.90;;;;;;4910959;29;20826;-76
2022/10/03 12:32:18;;;;;;;14.73;5.13;;;15.60;99.90;;;;;;4909500;29;20557;-77
2022/10/03 12:34:53;;;;;;;9.87;5.27;;;15.70;99.90;;;;;;4909718;29;21043;-76
2022/10/03 12:37:41;;;;;;;6.43;4.33;;;15.80;99.90;;;;;;4910794;29;20502;-76
2022/10/03 12:40:21;;;;;;;11.93;4.93;;;15.80;99.90;;;;;;4910547;29;20483;-76
2022/10/03 12:43:04;;;;;;;16.23;5.00;;;15.90;99.90;;;;;;4912017;29;20478;-75
2022/10/03 12:45:36;;;;;;;10.63;4.93;;;16.00;99.90;;;;;;4910241;29;20466;-76
2022/10/03 12:48:23;;;;;;;7.77;4.23;;;15.90;99.90;;;;;;4910517;29;20478;-76
2022/10/03 12:50:55;;;;;;;11.80;4.23;;;16.00;99.90;;;;;;4911008;29;20838;-76
2022/10/03 12:53:40;;;;;;;10.67;4.27;;;16.20;99.90;;;;;;4910670;29;20487;-76
2022/10/03 12:56:17;;;;;;;10.90;4.43;;;16.40;99.90;;;;;;4910419;29;20833;-76
2022/10/03 12:59:01;;;;;;;8.60;3.50;;;16.50;99.90;;;;;;4911345;29;20489;-76
2022/10/03 13:01:43;;;;;;;4.63;3.43;;;16.50;99.90;;;;;;4910488;29;20863;-75
2022/10/03 13:04:22;;;;;;;7.97;2.87;;;16.50;99.90;;;;;;4910526;29;20459;-75
2022/10/03 13:07:00;;;;;;;7.60;3.87;;;16.70;99.90;;;;;;4911033;29;20939;-76
2022/10/03 13:09:47;;;;;;;7.90;3.23;;;16.90;99.90;;;;;;4910557;29;20477;-77
2022/10/03 13:12:24;;;;;;;7.73;3.97;;;17.00;99.90;;;;;;4910278;29;20484;-76
2022/10/03 13:15:40;;;;;;;6.17;2.43;;;17.20;99.90;;;;;;4909589;29;20443;-76
2022/10/03 13:18:18;;;;;;;9.60;3.37;;;17.20;99.90;;;;;;4910491;29;20904;-76
2022/10/03 13:20:58;;;;;;;9.27;3.03;;;17.40;99.90;;;;;;4911239;29;20458;-76
2022/10/03 13:23:36;;;;;;;8.17;3.63;;;17.60;99.90;;;;;;4911129;29;20546;-75
2022/10/03 13:26:11;;;;;;;8.10;3.00;;;17.60;99.90;;;;;;4910861;29;20456;-76
2022/10/03 13:29:04;;;;;;;5.80;3.07;;;17.60;99.90;;;;;;4910385;29;20459;-76
2022/10/03 13:31:34;;;;;;;6.63;2.90;;;17.80;99.90;;;;;;4909583;29;20483;-72
2022/10/03 13:34:06;;;;;;;7.43;3.23;;;17.90;99.90;;;;;;4909312;29;20975;-72
2022/10/03 13:36:39;;;;;;;7.13;3.97;;;18.00;99.90;;;;;;4909371;29;20541;-72
2022/10/03 13:39:20;;;;;;;7.07;3.17;;;17.90;99.90;;;;;;4910172;29;20476;-72
2022/10/03 13:42:13;;;;;;;8.97;3.40;;;17.70;99.90;;;;;;4908871;29;20511;-72
2022/10/03 13:44:44;;;;;;;13.73;3.70;;;17.60;99.90;;;;;;4909275;29;20443;-70
2022/10/03 13:47:42;;;;;;;8.00;3.40;;;17.70;99.90;;;;;;4909263;29;20563;-71
2022/10/03 13:50:17;;;;;;;6.73;3.20;;;17.90;99.90;;;;;;4909735;29;20455;-71
2022/10/03 13:52:49;;;;;;;8.00;4.00;;;18.00;99.90;;;;;;4910247;29;20478;-71
2022/10/03 13:55:28;;;;;;;6.40;3.30;;;18.10;99.90;;;;;;4909120;29;20972;-71
2022/10/03 13:58:18;;;;;;;7.33;3.50;;;18.10;99.90;;;;;;4909630;29;20446;-72
2022/10/03 14:01:17;;;;;;;7.50;3.30;;;18.10;99.90;;;;;;4909426;29;20490;-77
2022/10/03 14:04:00;;;;;;;8.20;3.20;;;18.00;99.90;;;;;;4910266;29;20542;-76
2022/10/03 14:06:31;;;;;;;7.83;2.87;;;18.00;99.90;;;;;;4910312;29;20463;-76
2022/10/03 14:09:20;;;;;;;7.37;3.07;;;18.10;99.90;;;;;;4910382;29;20459;-75
2022/10/03 14:11:58;;;;;;;8.73;3.10;;;18.10;99.90;;;;;;4910981;29;20487;-75
2022/10/03 14:14:43;;;;;;;6.53;3.10;;;18.10;99.90;;;;;;4911284;29;20521;-76
2022/10/03 14:17:14;;;;;;;6.93;3.60;;;18.00;99.90;;;;;;4913267;29;20451;-76
2022/10/03 14:19:56;;;;;;;10.93;3.53;;;18.00;99.90;;;;;;4913194;29;20498;-77
2022/10/03 14:22:33;;;;;;;5.40;3.13;;;18.10;99.90;;;;;;4913132;29;20916;-77
2022/10/03 14:25:21;;;;;;;6.50;2.83;;;18.00;99.90;;;;;;4912044;29;20467;-77
2022/10/03 14:27:51;;;;;;;5.43;3.00;;;18.10;99.90;;;;;;4913311;29;20473;-77
2022/10/03 14:30:22;;;;;;;6.53;3.43;;;18.00;99.90;;;;;;4913147;29;20447;-77